Time;durP1;ratioP1;P1;durP2;ratioP2;P2;SDS_P1;SDS_P2;PMS_P1;PMS_P2;Temp;Humidity;BMP_temperature;BMP_pressure;BME280_temperature;BME280_humidity;BME280_pressure;Samples;Min_cycle;Max_cycle;Signal;HPM_P1;HPM_P2
2022/04/05 00:02:10;;;;;;;5.50;4.28;;;;;;;4.68;62.99;98708.22;2136045;82;27707;-66
2022/04/05 00:05:11;;;;;;;4.62;4.17;;;;;;;4.71;62.85;98710.72;2143670;82;29121;-66
2022/04/05 00:08:16;;;;;;;5.25;3.85;;;;;;;4.71;62.76;98703.59;2140928;82;31806;-65
2022/04/05 00:11:17;;;;;;;8.03;4.58;;;;;;;4.74;62.67;98710.53;2131494;81;33846;-66
2022/04/05 00:14:19;;;;;;;4.80;4.30;;;;;;;4.75;62.59;98708.27;2111114;84;29672;-65
2022/04/05 00:17:21;;;;;;;4.40;3.80;;;;;;;4.78;62.79;98705.95;2126050;82;27714;-66
2022/04/05 00:20:23;;;;;;;5.33;4.28;;;;;;;4.79;62.72;98707.67;2140378;82;29575;-67
2022/04/05 00:23:25;;;;;;;5.30;4.37;;;;;;;4.81;62.96;98700.01;2108012;84;31925;-66
2022/04/05 00:26:27;;;;;;;7.53;4.78;;;;;;;4.83;62.98;98698.14;2108236;84;32936;-64
2022/04/05 00:29:29;;;;;;;6.22;4.40;;;;;;;4.84;62.99;98694.55;2125546;83;29033;-64
2022/04/05 00:32:31;;;;;;;6.75;4.90;;;;;;;4.86;63.14;98689.14;2122002;82;28291;-66
2022/04/05 00:35:32;;;;;;;5.60;4.70;;;;;;;4.89;63.36;98687.66;2138185;83;29011;-65
2022/04/05 00:38:34;;;;;;;5.37;4.22;;;;;;;4.90;63.34;98689.38;2137907;83;31819;-63
2022/04/05 00:41:36;;;;;;;5.00;4.33;;;;;;;4.92;63.30;98696.80;2137771;83;33908;-63
2022/04/05 00:44:38;;;;;;;6.05;4.47;;;;;;;4.94;63.25;98691.40;2137931;83;29044;-64
2022/04/05 00:47:40;;;;;;;8.00;4.58;;;;;;;4.95;63.31;98682.50;2117415;83;27712;-65
2022/04/05 00:50:42;;;;;;;6.12;5.00;;;;;;;4.97;63.26;98677.97;2108368;84;30026;-66
2022/04/05 00:53:49;;;;;;;5.25;4.45;;;;;;;4.97;63.01;98677.97;2128215;83;32337;-64
2022/04/05 00:56:53;;;;;;;6.70;4.65;;;;;;;4.98;62.96;98675.70;2109678;83;33166;-64
2022/04/05 00:59:58;;;;;;;9.63;5.67;;;;;;;4.98;62.93;98674.38;2107934;84;29063;-64
2022/04/05 01:03:00;;;;;;;6.42;5.47;;;;;;;4.97;63.03;98678.81;2108432;84;27743;-65
2022/04/05 01:06:04;;;;;;;6.08;4.97;;;;;;;4.98;63.07;98670.41;2129230;83;29138;-64
2022/04/05 01:09:08;;;;;;;7.28;5.33;;;;;;;4.98;63.08;98675.22;2144613;82;31208;-65
2022/04/05 01:12:13;;;;;;;6.50;5.60;;;;;;;4.98;63.03;98663.77;2141032;82;34257;-65
2022/04/05 01:15:15;;;;;;;7.72;6.03;;;;;;;5.01;63.14;98670.25;2108676;83;29107;-65
2022/04/05 01:18:17;;;;;;;7.75;6.12;;;;;;;5.05;63.24;98678.41;2108306;84;27681;-65
2022/04/05 01:21:20;;;;;;;7.95;6.42;;;;;;;5.08;63.21;98674.27;2123996;83;28717;-65
2022/04/05 01:24:21;;;;;;;8.88;6.40;;;;;;;5.11;63.18;98662.16;2140606;82;31849;-65
2022/04/05 01:27:27;;;;;;;9.90;6.40;;;;;;;5.13;63.25;98657.64;2108447;83;33084;-65
2022/04/05 01:30:27;;;;;;;8.85;6.60;;;;;;;5.16;63.37;98656.60;2137590;83;29399;-66
2022/04/05 01:33:29;;;;;;;9.35;6.80;;;;;;;5.19;63.28;98652.46;2140422;83;27557;-65
2022/04/05 01:36:30;;;;;;;6.62;5.60;;;;;;;5.22;63.38;98656.73;2140298;83;29218;-66
2022/04/05 01:39:34;;;;;;;6.47;5.62;;;;;;;5.23;63.43;98656.67;2144028;83;31371;-65
2022/04/05 01:42:37;;;;;;;5.65;5.05;;;;;;;5.25;63.37;98655.25;2113793;83;32961;-65
2022/04/05 01:45:39;;;;;;;6.85;5.28;;;;;;;5.26;63.27;98664.92;2108298;84;29048;-65
2022/04/05 01:48:41;;;;;;;5.67;5.00;;;;;;;5.28;63.35;98664.38;2091853;83;27767;-65
2022/04/05 01:51:45;;;;;;;6.08;5.42;;;;;;;5.28;63.33;98653.76;2129667;82;29221;-65
2022/04/05 01:54:46;;;;;;;5.95;4.83;;;;;;;5.31;63.44;98654.92;2120471;83;32175;-65
2022/04/05 01:57:48;;;;;;;7.87;5.25;;;;;;;5.30;63.43;98651.39;2123127;83;32949;-66
2022/04/05 02:00:50;;;;;;;7.72;5.22;;;;;;;5.29;63.36;98652.36;2108443;84;28803;-66
2022/04/05 02:03:52;;;;;;;6.65;5.05;;;;;;;5.27;63.49;98650.27;2108244;83;27565;-66
2022/04/05 02:06:54;;;;;;;7.42;5.22;;;;;;;5.28;63.57;98654.63;2107472;84;28635;-66
2022/04/05 02:09:56;;;;;;;6.90;5.25;;;;;;;5.28;63.48;98653.30;2108448;84;31008;-66
2022/04/05 02:12:58;;;;;;;8.03;6.62;;;;;;;5.28;63.50;98651.98;2117846;83;33051;-66
2022/04/05 02:16:06;;;;;;;8.50;6.80;;;;;;;5.30;63.56;98651.88;2144460;83;29025;-66
2022/04/05 02:19:09;;;;;;;7.97;6.00;;;;;;;5.30;63.63;98650.06;2135894;82;28297;-64
2022/04/05 02:22:11;;;;;;;6.83;5.65;;;;;;;5.32;63.64;98638.05;2135465;83;29542;-65
2022/04/05 02:25:13;;;;;;;10.50;5.70;;;;;;;5.33;63.74;98645.08;2120874;83;31383;-65
2022/04/05 02:28:15;;;;;;;7.55;6.50;;;;;;;5.34;63.82;98648.12;2099149;84;34157;-65
2022/04/05 02:31:17;;;;;;;7.28;5.40;;;;;;;5.36;63.96;98648.03;2100109;84;29757;-65
2022/04/05 02:34:19;;;;;;;6.83;5.20;;;;;;;5.36;63.91;98636.95;2105935;83;27680;-66
2022/04/05 02:37:20;;;;;;;5.83;5.22;;;;;;;5.37;63.81;98639.13;2099270;84;29029;-65
2022/04/05 02:40:23;;;;;;;7.55;5.05;;;;;;;5.35;64.25;98637.02;2099700;84;31435;-66
2022/04/05 02:43:25;;;;;;;9.73;5.95;;;;;;;5.35;64.00;98642.33;2099474;84;34221;-65
2022/04/05 02:46:27;;;;;;;7.97;5.42;;;;;;;5.34;64.00;98642.81;2099338;84;29892;-65
2022/04/05 02:49:29;;;;;;;7.30;5.37;;;;;;;5.35;64.06;98647.64;2099803;83;27647;-65
2022/04/05 02:52:31;;;;;;;6.65;5.10;;;;;;;5.36;64.19;98635.63;2105288;83;28639;-65
2022/04/05 02:55:33;;;;;;;6.25;4.90;;;;;;;5.36;64.14;98637.41;2135111;83;32233;-65
2022/04/05 02:58:36;;;;;;;6.12;4.95;;;;;;;5.36;64.06;98635.63;2133793;83;33305;-65
2022/04/05 03:01:38;;;;;;;5.87;4.70;;;;;;;5.38;64.23;98646.99;2135545;83;30168;-65
2022/04/05 03:04:39;;;;;;;7.75;4.78;;;;;;;5.41;64.29;98642.00;2135208;83;27709;-65
2022/04/05 03:07:41;;;;;;;6.92;4.53;;;;;;;5.42;64.32;98647.70;2135573;83;27855;-66
2022/04/05 03:10:43;;;;;;;5.35;4.75;;;;;;;5.41;64.30;98648.16;2134840;83;32237;-65
2022/04/05 03:13:45;;;;;;;6.45;4.17;;;;;;;5.40;64.29;98649.09;2115103;83;32955;-66
2022/04/05 03:16:46;;;;;;;5.62;4.37;;;;;;;5.41;64.29;98648.64;2099636;84;29826;-65
2022/04/05 03:19:49;;;;;;;7.53;4.75;;;;;;;5.41;64.29;98641.52;2119424;83;27685;-65
2022/04/05 03:22:52;;;;;;;8.70;4.72;;;;;;;5.39;64.37;98642.55;2135252;83;29921;-65
2022/04/05 03:25:54;;;;;;;5.97;4.85;;;;;;;5.40;64.46;98646.44;2135371;83;31553;-65
2022/04/05 03:28:57;;;;;;;5.25;4.75;;;;;;;5.40;64.38;98644.27;2124616;83;34246;-64
2022/04/05 03:31:59;;;;;;;6.12;4.72;;;;;;;5.42;64.49;98643.23;2099568;84;29949;-64
2022/04/05 03:35:01;;;;;;;5.75;3.87;;;;;;;5.43;64.55;98640.97;2121723;83;27699;-64
2022/04/05 03:38:02;;;;;;;6.03;4.87;;;;;;;5.45;64.54;98635.59;2111691;83;29023;-64
2022/04/05 03:41:04;;;;;;;5.28;4.50;;;;;;;5.45;64.61;98641.74;2099566;84;31434;-63
2022/04/05 03:44:06;;;;;;;8.00;5.12;;;;;;;5.46;64.61;98642.13;2109879;83;33332;-63
2022/04/05 03:47:08;;;;;;;5.62;4.62;;;;;;;5.48;64.67;98639.38;2135621;83;29830;-64
2022/04/05 03:50:10;;;;;;;7.03;4.80;;;;;;;5.48;64.74;98635.39;2135876;83;27650;-64
2022/04/05 03:53:12;;;;;;;8.23;5.25;;;;;;;5.49;64.77;98633.12;2121572;83;29671;-64
2022/04/05 03:56:14;;;;;;;5.45;4.72;;;;;;;5.51;64.76;98639.70;2099438;83;32275;-64
2022/04/05 03:59:16;;;;;;;4.85;4.25;;;;;;;5.52;64.76;98640.92;2098765;84;34157;-64
2022/04/05 04:02:18;;;;;;;4.67;4.20;;;;;;;5.53;64.92;98638.66;2125289;83;29366;-64
2022/04/05 04:05:20;;;;;;;6.67;4.20;;;;;;;5.55;64.90;98642.09;2119254;83;27665;-64
2022/04/05 04:08:22;;;;;;;4.87;4.28;;;;;;;5.56;64.92;98638.49;2099203;84;29870;-64
2022/04/05 04:11:24;;;;;;;5.80;4.03;;;;;;;5.58;65.06;98644.58;2099987;84;31943;-64
2022/04/05 04:14:26;;;;;;;4.58;3.70;;;;;;;5.59;64.94;98644.09;2099535;84;34030;-64
2022/04/05 04:17:28;;;;;;;6.42;3.85;;;;;;;5.59;64.95;98647.62;2099780;84;28848;-64
2022/04/05 04:20:29;;;;;;;3.92;3.52;;;;;;;5.62;65.03;98643.92;2113435;82;27622;-63
2022/04/05 04:23:32;;;;;;;3.75;3.05;;;;;;;5.64;65.07;98648.69;2107554;84;29938;-64
2022/04/05 04:26:34;;;;;;;5.12;3.00;;;;;;;5.65;65.02;98646.42;2107566;84;32257;-64
2022/04/05 04:29:35;;;;;;;3.37;3.05;;;;;;;5.67;65.10;98655.16;2124352;83;34196;-64
2022/04/05 04:32:37;;;;;;;2.72;2.50;;;;;;;5.69;65.19;98647.09;2107110;84;30164;-64
2022/04/05 04:35:42;;;;;;;2.65;2.42;;;;;;;5.71;65.19;98655.34;2107303;84;27620;-64
2022/04/05 04:38:45;;;;;;;2.90;2.60;;;;;;;5.72;65.21;98651.75;2107887;84;29747;-63
2022/04/05 04:41:47;;;;;;;4.92;4.47;;;;;;;5.75;65.19;98656.90;2124654;83;31253;-65
2022/04/05 04:44:50;;;;;;;2.98;2.67;;;;;;;5.78;65.32;98663.38;2134437;83;34083;-63
2022/04/05 04:47:52;;;;;;;3.35;2.80;;;;;;;5.80;65.30;98661.95;2137067;83;29679;-64
2022/04/05 04:50:55;;;;;;;2.67;2.33;;;;;;;5.84;65.43;98667.48;2109276;82;27677;-64
2022/04/05 04:53:57;;;;;;;2.12;1.95;;;;;;;5.88;65.55;98668.16;2106812;84;29281;-64
2022/04/05 04:56:58;;;;;;;3.25;2.25;;;;;;;5.90;65.45;98667.14;2114297;83;32276;-64
2022/04/05 05:00:00;;;;;;;4.85;3.30;;;;;;;5.92;65.43;98667.05;2108188;83;33339;-64
2022/04/05 05:03:03;;;;;;;5.35;3.70;;;;;;;5.93;65.58;98668.30;2107736;84;30364;-65
2022/04/05 05:06:04;;;;;;;4.95;3.92;;;;;;;5.96;65.58;98663.77;2107349;84;27733;-64
2022/04/05 05:09:06;;;;;;;3.83;3.00;;;;;;;5.97;65.61;98659.67;2120438;83;29060;-64
2022/04/05 05:12:12;;;;;;;3.90;2.92;;;;;;;5.98;65.72;98671.15;2125829;83;31526;-63
2022/04/05 05:15:19;;;;;;;3.58;2.83;;;;;;;6.01;65.89;98681.64;2107879;83;33593;-64
2022/04/05 05:18:21;;;;;;;2.77;2.42;;;;;;;6.02;66.00;98676.27;2133117;83;29120;-64
2022/04/05 05:21:23;;;;;;;4.47;2.75;;;;;;;6.04;66.06;98680.98;2146410;82;27631;-64
2022/04/05 05:24:24;;;;;;;5.35;3.60;;;;;;;6.07;66.14;98687.95;2147544;82;28646;-64
2022/04/05 05:27:28;;;;;;;5.78;4.03;;;;;;;6.06;66.15;98688.41;2147464;82;32110;-64
2022/04/05 05:30:32;;;;;;;7.42;4.28;;;;;;;6.06;66.22;98691.06;2144091;81;33448;-64
2022/04/05 05:33:33;;;;;;;6.67;4.37;;;;;;;6.07;66.24;98697.26;2114537;82;29926;-65
2022/04/05 05:36:35;;;;;;;5.53;4.67;;;;;;;6.10;66.28;98700.20;2148099;82;27665;-65
2022/04/05 05:39:37;;;;;;;6.03;3.92;;;;;;;6.07;66.32;98699.42;2148219;82;29897;-65
2022/04/05 05:42:58;;;;;;;6.53;4.92;;;;;;;6.08;66.43;98704.29;2116782;82;31549;-64
2022/04/05 05:46:03;;;;;;;5.33;3.90;;;;;;;6.12;66.62;98707.63;2111685;82;33792;-65
2022/04/05 05:49:05;;;;;;;5.00;4.13;;;;;;;6.14;66.73;98707.06;2111428;84;29071;-65
2022/04/05 05:52:07;;;;;;;4.12;3.35;;;;;;;6.16;66.86;98716.66;2111529;84;27683;-65
2022/04/05 05:55:11;;;;;;;6.20;2.80;;;;;;;6.18;66.94;98720.09;2128571;82;29249;-64
2022/04/05 05:58:13;;;;;;;3.10;2.80;;;;;;;6.18;67.11;98720.09;2146815;82;31014;-66
2022/04/05 06:01:16;;;;;;;4.45;2.87;;;;;;;6.16;67.28;98725.96;2146755;82;34185;-66
2022/04/05 06:04:18;;;;;;;5.37;3.15;;;;;;;6.19;67.38;98732.93;2147707;82;29220;-65
2022/04/05 06:07:19;;;;;;;3.55;2.80;;;;;;;6.20;67.42;98732.83;2148339;82;27604;-65
2022/04/05 06:10:22;;;;;;;2.70;2.50;;;;;;;6.23;67.60;98739.77;2133690;82;28642;-65
2022/04/05 06:13:24;;;;;;;6.20;2.95;;;;;;;6.27;67.67;98743.97;2131647;82;30975;-66
2022/04/05 06:16:26;;;;;;;3.25;2.62;;;;;;;6.28;67.62;98746.17;2111757;84;33387;-67
2022/04/05 06:19:29;;;;;;;3.25;2.95;;;;;;;6.30;67.69;98748.24;2117938;82;30269;-66
2022/04/05 06:22:31;;;;;;;4.78;3.40;;;;;;;6.33;67.65;98755.59;2114751;82;27633;-66
2022/04/05 06:25:37;;;;;;;5.25;4.05;;;;;;;6.34;67.89;98749.33;2101814;83;29902;-65
2022/04/05 06:28:39;;;;;;;2.83;2.52;;;;;;;6.39;67.86;98758.37;2143930;82;31018;-65
2022/04/05 06:31:41;;;;;;;4.37;3.00;;;;;;;6.39;67.82;98759.70;2113969;82;33819;-65
2022/04/05 06:34:43;;;;;;;3.25;2.58;;;;;;;6.43;67.84;98766.56;2108171;84;29535;-65
2022/04/05 06:37:45;;;;;;;3.47;3.05;;;;;;;6.43;67.69;98772.34;2124063;83;27651;-67
2022/04/05 06:40:47;;;;;;;4.55;3.67;;;;;;;6.42;67.66;98763.98;2130700;83;29423;-65
2022/04/05 06:43:50;;;;;;;4.78;3.52;;;;;;;6.41;67.68;98775.56;2108682;84;31016;-66
2022/04/05 06:46:52;;;;;;;4.55;3.65;;;;;;;6.44;67.69;98782.91;2108645;83;33367;-67
2022/04/05 06:49:53;;;;;;;3.65;2.85;;;;;;;6.42;67.39;98771.50;2111293;83;29409;-66
2022/04/05 06:52:59;;;;;;;3.77;2.80;;;;;;;6.46;67.45;98771.69;2133261;82;27653;-66
2022/04/05 06:56:01;;;;;;;4.35;3.72;;;;;;;6.50;67.48;98774.56;2108352;84;28652;-66
2022/04/05 06:59:03;;;;;;;3.95;3.65;;;;;;;6.56;67.62;98774.67;2107855;84;31078;-66
2022/04/05 07:02:05;;;;;;;4.40;3.95;;;;;;;6.62;67.58;98776.16;2108067;84;33322;-66
2022/04/05 07:05:09;;;;;;;4.00;3.60;;;;;;;6.65;67.32;98782.60;2117095;83;28975;-65
2022/04/05 07:08:11;;;;;;;2.65;2.22;;;;;;;6.68;67.24;98780.64;2108477;84;27653;-66
2022/04/05 07:11:13;;;;;;;4.72;3.58;;;;;;;6.73;67.03;98790.14;2108043;84;29927;-66
2022/04/05 07:14:15;;;;;;;3.60;3.30;;;;;;;6.71;66.94;98784.04;2129703;83;32267;-66
2022/04/05 07:17:18;;;;;;;3.60;3.30;;;;;;;6.71;66.93;98792.90;2139873;83;32984;-65
2022/04/05 07:20:21;;;;;;;4.35;3.80;;;;;;;6.74;66.83;98796.72;2140705;82;29228;-65
2022/04/05 07:23:23;;;;;;;3.42;3.12;;;;;;;6.73;66.66;98792.34;2107895;84;27674;-66
2022/04/05 07:26:25;;;;;;;4.37;3.72;;;;;;;6.75;66.79;98793.11;2107554;84;29691;-65
2022/04/05 07:29:27;;;;;;;5.58;4.47;;;;;;;6.79;66.79;98801.77;2118688;83;32270;-65
2022/04/05 07:32:38;;;;;;;4.45;3.90;;;;;;;6.82;66.79;98806.43;2108026;84;33339;-64
2022/04/05 07:35:40;;;;;;;5.58;4.47;;;;;;;6.86;66.67;98811.13;2106924;84;30210;-64
2022/04/05 07:38:43;;;;;;;4.62;4.08;;;;;;;6.89;66.65;98813.58;2120886;83;28169;-65
2022/04/05 07:41:45;;;;;;;4.22;3.72;;;;;;;6.91;66.75;98821.01;2123058;83;29065;-65
2022/04/05 07:44:48;;;;;;;3.70;3.40;;;;;;;6.94;66.91;98819.50;2136238;83;31067;-65
2022/04/05 07:47:50;;;;;;;5.70;3.67;;;;;;;6.94;66.80;98827.98;2136421;82;34059;-65
2022/04/05 07:50:52;;;;;;;4.75;4.10;;;;;;;7.00;67.11;98839.58;2109687;83;29868;-64
2022/04/05 07:53:54;;;;;;;5.90;5.33;;;;;;;7.03;67.10;98843.40;2107517;84;27682;-65
2022/04/05 07:56:57;;;;;;;6.75;4.58;;;;;;;7.06;67.27;98844.55;2106761;84;29165;-65
2022/04/05 08:00:00;;;;;;;5.55;5.03;;;;;;;7.11;67.36;98846.94;2136974;83;30947;-66
2022/04/05 08:03:03;;;;;;;8.60;6.97;;;;;;;7.16;67.31;98856.86;2143750;83;33863;-65
2022/04/05 08:06:06;;;;;;;9.05;7.92;;;;;;;7.24;67.56;98853.25;2143398;83;29849;-65
2022/04/05 08:09:08;;;;;;;31.23;17.87;;;;;;;7.34;67.52;98857.56;2130314;83;27642;-65
2022/04/05 08:12:50;;;;;;;20.92;15.95;;;;;;;7.45;67.62;98860.92;2107604;84;29856;-65
2022/04/05 08:15:54;;;;;;;13.10;11.85;;;;;;;7.61;67.52;98868.86;2108173;83;31391;-65
2022/04/05 08:18:56;;;;;;;7.05;6.28;;;;;;;7.80;67.35;98865.05;2107654;84;32797;-66
2022/04/05 08:21:58;;;;;;;6.30;5.70;;;;;;;7.94;66.93;98870.87;2131015;83;29077;-64
2022/04/05 08:25:01;;;;;;;6.50;5.78;;;;;;;8.12;66.93;98875.06;2123935;82;27600;-65
2022/04/05 08:28:04;;;;;;;5.53;5.03;;;;;;;8.31;66.66;98876.08;2108459;84;29532;-65
2022/04/05 08:31:06;;;;;;;5.40;4.70;;;;;;;8.49;66.34;98879.44;2137441;83;31102;-66
2022/04/05 08:34:08;;;;;;;6.30;5.70;;;;;;;8.58;66.14;98877.12;2142260;83;34287;-65
2022/04/05 08:37:10;;;;;;;5.60;4.92;;;;;;;8.74;66.39;98881.00;2128436;83;30149;-65
2022/04/05 08:40:15;;;;;;;5.62;3.60;;;;;;;9.00;66.39;98873.95;2110135;83;27799;-66
2022/04/05 08:43:17;;;;;;;4.65;4.15;;;;;;;9.24;66.01;98871.45;2144535;83;28553;-66
2022/04/05 08:46:21;;;;;;;4.00;3.70;;;;;;;9.47;65.40;98882.88;2122127;83;31634;-66
2022/04/05 08:49:23;;;;;;;3.90;3.55;;;;;;;9.52;65.46;98893.63;2128484;82;32982;-64
2022/04/05 08:52:25;;;;;;;4.12;3.77;;;;;;;9.50;65.06;98902.72;2107955;84;30216;-66
2022/04/05 08:55:29;;;;;;;7.40;4.78;;;;;;;9.38;64.65;98905.73;2084054;84;28178;-66
2022/04/05 08:58:31;;;;;;;5.03;4.20;;;;;;;9.21;64.39;98909.06;2132434;83;29536;-65
2022/04/05 09:01:34;;;;;;;3.70;3.37;;;;;;;9.09;64.63;98910.73;2140742;83;32255;-65
2022/04/05 09:04:36;;;;;;;2.67;1.92;;;;;;;9.04;64.62;98906.65;2137878;82;32397;-66
2022/04/05 09:07:40;;;;;;;3.50;3.17;;;;;;;9.11;64.43;98914.16;2108183;83;30211;-65
2022/04/05 09:10:43;;;;;;;3.37;3.08;;;;;;;9.23;64.57;98913.83;2108186;84;27717;-68
2022/04/05 09:13:58;;;;;;;4.42;3.17;;;;;;;9.36;64.54;98921.02;2128771;83;28700;-65
2022/04/05 09:17:07;;;;;;;6.17;4.58;;;;;;;9.57;64.51;98918.70;2136819;82;31684;-66
2022/04/05 09:20:12;;;;;;;2.08;1.87;;;;;;;9.91;64.54;98912.88;2142859;81;33834;-66
2022/04/05 09:23:29;;;;;;;12.88;7.05;;;;;;;10.01;63.52;98915.27;2107739;84;29055;-66
2022/04/05 09:26:37;;;;;;;1.30;1.20;;;;;;;10.01;63.70;98908.59;2130961;83;27729;-66
2022/04/05 09:29:47;;;;;;;2.00;1.45;;;;;;;9.94;62.89;98915.31;2142120;83;29001;-66
2022/04/05 09:32:50;;;;;;;2.02;1.40;;;;;;;9.94;63.16;98912.17;2143923;83;30432;-66
2022/04/05 09:36:02;;;;;;;7.33;2.83;;;;;;;10.04;62.93;98909.72;2143887;83;33033;-65
2022/04/05 09:39:25;;;;;;;2.85;2.40;;;;;;;10.17;63.04;98912.39;2143929;83;28816;-66
2022/04/05 09:42:27;;;;;;;3.35;1.27;;;;;;;10.37;62.95;98902.06;2125026;82;27914;-68
2022/04/05 09:46:00;;;;;;;6.10;2.62;;;;;;;10.40;61.89;98905.44;2106401;84;30725;-67
2022/04/05 09:49:13;;;;;;;4.53;2.20;;;;;;;10.42;61.56;98894.60;2107377;84;31695;-67
2022/04/05 09:52:30;;;;;;;5.67;2.20;;;;;;;10.56;61.78;98901.16;2107208;84;34217;-68
2022/04/05 09:55:32;;;;;;;9.98;4.20;;;;;;;10.77;61.39;98906.77;2107419;83;29118;-67
2022/04/05 09:58:36;;;;;;;13.68;6.97;;;;;;;10.95;60.79;98901.02;2107452;84;27713;-68
2022/04/05 10:01:38;;;;;;;4.50;1.98;;;;;;;11.16;60.71;98913.81;2126196;83;29964;-68
2022/04/05 10:05:09;;;;;;;2.05;1.22;;;;;;;11.27;60.33;98906.31;2129087;83;31913;-68
2022/04/05 10:08:11;;;;;;;2.20;1.32;;;;;;;11.39;59.48;98914.77;2107703;84;33614;-67
2022/04/05 10:11:14;;;;;;;2.62;1.10;;;;;;;11.48;59.03;98910.06;2107265;84;30054;-68
2022/04/05 10:14:25;;;;;;;6.90;1.92;;;;;;;11.61;58.95;98911.80;2134161;83;27704;-67
2022/04/05 10:17:28;;;;;;;8.03;3.22;;;;;;;11.77;58.90;98915.48;2142841;83;30005;-68
2022/04/05 10:20:35;;;;;;;5.80;1.90;;;;;;;11.86;58.45;98928.20;2141418;82;31176;-68
2022/04/05 10:23:37;;;;;;;5.53;2.00;;;;;;;11.85;57.67;98926.49;2136656;83;33809;-67
2022/04/05 10:26:42;;;;;;;8.33;3.00;;;;;;;11.77;57.03;98933.80;2142687;83;29481;-67
2022/04/05 10:29:45;;;;;;;8.90;3.35;;;;;;;11.74;57.08;98934.52;2123827;82;27687;-65
2022/04/05 10:33:17;;;;;;;2.60;1.45;;;;;;;11.79;56.79;98940.38;2107127;84;29572;-67
2022/04/05 10:36:24;;;;;;;6.72;2.08;;;;;;;11.80;56.89;98940.74;2081649;84;30533;-68
2022/04/05 10:39:26;;;;;;;4.95;2.35;;;;;;;11.82;56.64;98932.09;2081881;83;34348;-67
2022/04/05 10:42:44;;;;;;;6.72;3.10;;;;;;;11.85;56.40;98930.52;2107453;84;30134;-69
2022/04/05 10:45:46;;;;;;;4.28;2.08;;;;;;;11.98;56.64;98917.89;2107550;84;27751;-68
2022/04/05 10:48:56;;;;;;;3.58;2.25;;;;;;;12.18;56.38;98920.84;2113525;83;28707;-67
2022/04/05 10:52:15;;;;;;;5.15;2.30;;;;;;;12.26;55.79;98923.77;2107152;84;32229;-67
2022/04/05 10:55:20;;;;;;;5.95;3.60;;;;;;;12.23;55.53;98933.42;2107653;84;33812;-68
2022/04/05 10:58:22;;;;;;;5.30;2.08;;;;;;;12.16;55.61;98938.39;2114106;83;29104;-67
2022/04/05 11:01:39;;;;;;;7.03;3.77;;;;;;;12.18;55.44;98938.30;2144112;82;27689;-66
2022/04/05 11:04:41;;;;;;;4.78;2.20;;;;;;;12.15;55.40;98939.41;2143939;83;28482;-69
2022/04/05 11:08:01;;;;;;;6.97;3.85;;;;;;;12.08;54.44;98939.50;2143898;83;31492;-68
2022/04/05 11:11:08;;;;;;;12.53;5.33;;;;;;;12.06;54.78;98952.69;2106131;84;33313;-68
2022/04/05 11:14:10;;;;;;;5.65;2.42;;;;;;;12.14;55.27;98952.92;2105896;84;30193;-67
2022/04/05 11:17:15;;;;;;;5.67;2.85;;;;;;;12.20;54.79;98945.74;2120349;83;27711;-67
2022/04/05 11:20:17;;;;;;;10.53;4.87;;;;;;;12.28;54.12;98947.83;2143718;82;28649;-67
2022/04/05 11:23:22;;;;;;;9.33;4.87;;;;;;;12.29;54.47;98940.98;2118832;83;31410;-66
2022/04/05 11:26:35;;;;;;;5.75;3.17;;;;;;;12.38;53.74;98946.11;2102693;84;33833;-68
2022/04/05 11:29:37;;;;;;;4.75;2.10;;;;;;;12.56;54.31;98945.16;2127783;83;29817;-66
2022/04/05 11:32:39;;;;;;;5.78;2.30;;;;;;;12.69;53.61;98945.00;2144640;82;27855;-67
2022/04/05 11:35:51;;;;;;;9.45;4.53;;;;;;;12.70;53.24;98949.40;2143233;82;30047;-67
2022/04/05 11:38:58;;;;;;;5.35;1.95;;;;;;;12.69;53.09;98950.88;2145317;83;31159;-67
2022/04/05 11:42:00;;;;;;;7.65;2.50;;;;;;;12.66;52.58;98957.84;2121946;83;33132;-65
2022/04/05 11:45:03;;;;;;;6.60;2.30;;;;;;;12.59;52.73;98959.66;2108642;83;31092;-67
2022/04/05 11:48:06;;;;;;;6.83;2.72;;;;;;;12.58;52.83;98960.64;2087044;83;27670;-66
2022/04/05 11:51:11;;;;;;;5.87;2.65;;;;;;;12.67;53.30;98957.70;2144726;83;28723;-67
2022/04/05 11:54:24;;;;;;;8.23;2.72;;;;;;;12.75;52.96;98958.42;2136324;83;31157;-66
2022/04/05 11:57:27;;;;;;;2.77;1.70;;;;;;;12.75;53.04;98966.48;2086500;84;33885;-65
2022/04/05 12:00:29;;;;;;;5.35;1.67;;;;;;;12.80;52.33;98968.33;2108609;84;30226;-67
2022/04/05 12:03:53;;;;;;;5.33;2.30;;;;;;;12.76;51.84;98970.89;2109013;84;27642;-67
2022/04/05 12:06:58;;;;;;;5.05;2.10;;;;;;;12.73;51.66;98972.50;2143457;83;29679;-67
2022/04/05 12:10:00;;;;;;;4.80;1.82;;;;;;;12.53;51.69;98982.13;2144814;83;31002;-66
2022/04/05 12:13:02;;;;;;;3.75;2.27;;;;;;;12.39;51.77;98988.61;2141774;83;33749;-67
2022/04/05 12:16:06;;;;;;;6.95;2.30;;;;;;;12.27;52.04;98980.52;2138237;83;29011;-67
2022/04/05 12:19:08;;;;;;;3.35;2.17;;;;;;;12.26;52.07;98979.31;2117329;82;27696;-68
2022/04/05 12:22:16;;;;;;;3.62;2.65;;;;;;;12.29;52.07;98974.55;2108320;84;29429;-67
2022/04/05 12:25:18;;;;;;;9.45;5.55;;;;;;;12.40;52.22;98975.55;2122091;83;30447;-65
2022/04/05 12:28:21;;;;;;;9.08;4.22;;;;;;;12.45;52.05;98982.27;2140344;83;33763;-66
2022/04/05 12:31:28;;;;;;;4.42;2.92;;;;;;;12.54;51.63;98980.69;2126934;83;29318;-61
2022/04/05 12:34:29;;;;;;;6.08;3.80;;;;;;;12.55;51.33;98981.52;2147842;81;27692;-65
2022/04/05 12:37:31;;;;;;;6.47;4.03;;;;;;;12.63;50.93;98972.86;2142228;81;29936;-65
2022/04/05 12:40:40;;;;;;;4.05;2.08;;;;;;;12.67;50.75;98977.02;2141860;83;32166;-60
2022/04/05 12:43:43;;;;;;;5.97;1.90;;;;;;;12.70;50.19;98975.44;2141875;83;33124;-62
2022/04/05 12:46:56;;;;;;;4.25;2.52;;;;;;;12.72;50.71;98970.29;2142063;83;29401;-60
2022/04/05 12:50:04;;;;;;;3.95;2.17;;;;;;;12.78;50.74;98964.06;2120274;83;27605;-62
2022/04/05 12:53:07;;;;;;;19.75;10.28;;;;;;;12.81;50.65;98975.42;2116798;83;27619;-61
2022/04/05 12:56:13;;;;;;;3.47;2.45;;;;;;;12.96;50.84;98977.84;2136399;83;32302;-61
2022/04/05 12:59:14;;;;;;;4.33;2.50;;;;;;;12.97;50.20;98972.36;2136710;83;32999;-63
2022/04/05 13:02:29;;;;;;;4.67;2.20;;;;;;;12.94;49.88;98978.45;2079881;84;29191;-62
2022/04/05 13:08:53;;;;;;;5.00;2.45;;;;;;;12.94;49.84;98971.25;2143456;83;29049;-63
2022/04/05 13:12:13;;;;;;;4.50;2.25;;;;;;;12.90;49.65;98985.91;2143749;83;31025;-61
2022/04/05 13:15:16;;;;;;;5.05;2.50;;;;;;;12.81;49.98;98986.67;2107661;84;33870;-63
2022/04/05 13:18:18;;;;;;;4.60;2.20;;;;;;;12.77;49.37;98987.38;2132956;83;31263;-65
2022/04/05 13:21:21;;;;;;;5.95;2.20;;;;;;;12.59;49.56;98984.34;2109328;83;27644;-63
2022/04/05 13:24:40;;;;;;;3.35;2.35;;;;;;;12.50;50.01;98995.33;2110582;83;28862;-61
2022/04/05 13:27:43;;;;;;;8.18;2.12;;;;;;;12.52;50.23;98997.41;2158323;82;32432;-61
2022/04/05 13:30:47;;;;;;;8.65;3.00;;;;;;;12.53;49.92;99008.52;2082027;85;32964;-61
2022/04/05 13:33:50;;;;;;;7.97;3.00;;;;;;;12.57;50.43;99001.07;2109901;84;29847;-61
2022/04/05 13:36:54;;;;;;;6.62;2.52;;;;;;;12.61;50.47;99001.20;2066508;85;27747;-60
2022/04/05 13:39:59;;;;;;;9.87;2.37;;;;;;;12.62;50.40;99002.91;2061101;86;28645;-59
2022/04/05 13:43:02;;;;;;;3.12;2.00;;;;;;;12.52;50.38;99000.56;2095140;84;31793;-62
2022/04/05 13:46:05;;;;;;;5.00;2.85;;;;;;;12.41;50.20;99001.44;2059916;85;33001;-63
2022/04/05 13:49:16;;;;;;;4.92;2.35;;;;;;;12.22;50.42;99004.68;2061152;86;28636;-64
2022/04/05 13:52:20;;;;;;;4.35;2.30;;;;;;;12.07;50.55;99003.55;2060781;86;27866;-63
2022/04/05 13:55:22;;;;;;;5.67;2.67;;;;;;;11.96;50.79;99007.02;2061170;86;29128;-62
2022/04/05 13:58:25;;;;;;;8.63;2.60;;;;;;;11.85;50.58;99001.63;2060600;86;31971;-61
2022/04/05 14:01:27;;;;;;;5.37;2.72;;;;;;;11.75;50.92;99004.66;2061280;84;33057;-62
2022/04/05 14:04:30;;;;;;;24.47;3.90;;;;;;;11.69;51.02;99004.60;2051943;84;30215;-63
2022/04/05 14:07:33;;;;;;;3.22;2.70;;;;;;;11.57;51.11;98997.02;2101247;84;27554;-61
2022/04/05 14:10:38;;;;;;;5.10;2.37;;;;;;;11.50;51.28;98999.77;2082174;85;28649;-60
2022/04/05 14:13:40;;;;;;;5.62;3.00;;;;;;;11.42;51.33;99001.69;2063993;85;31225;-61
2022/04/05 14:16:42;;;;;;;10.13;2.52;;;;;;;11.36;51.53;99003.47;2051260;85;32858;-64
2022/04/05 14:19:44;;;;;;;6.03;2.55;;;;;;;11.22;51.33;99003.16;2081959;85;28952;-62
2022/04/05 14:22:47;;;;;;;5.12;2.83;;;;;;;11.08;51.33;99006.38;2052890;85;27662;-61
2022/04/05 14:25:49;;;;;;;7.85;3.75;;;;;;;10.97;51.67;99004.94;2034780;87;29947;-61
2022/04/05 14:28:51;;;;;;;8.15;2.95;;;;;;;10.86;51.92;99005.70;2069339;85;31904;-61
2022/04/05 14:31:53;;;;;;;4.58;2.80;;;;;;;10.74;51.94;98999.43;2052227;86;34198;-63
2022/04/05 14:34:55;;;;;;;7.47;2.95;;;;;;;10.68;52.24;99010.56;2085561;85;29200;-63
2022/04/05 14:37:57;;;;;;;8.33;2.70;;;;;;;10.62;52.37;99002.95;2071333;85;27687;-62